Terminal Aerodrome Forecast
Issued by NWS Mt. Holly, NJ

Home | Current Version | Previous Version | Text Only | Print | Product List | Glossary On
Versions: 1 2 3 4 5 6 7 8 9 10 11 12 13 14
733
FTUS41 KPHI 221120
TAFTTN
TAF
KTTN 221120Z 2212/2312 VRB03KT P6SM OVC060
     FM230200 11004KT P6SM BKN200 WS020/20035KT
     FM230900 13005KT 6SM SHRA OVC035 WS020/21035KT
     FM231000 15006KT 6SM SHRA OVC025 WS020/21040KT=

USA.gov is the U.S. government's official web portal to all federal, state and local government web resources and services.